sensor_id;sensor_type;location;lat;lon;timestamp;temperature;humidity
10245;DHT22;5167;52.164;10.530;2024-03-25T00:01:29;8.10;40.80
10245;DHT22;5167;52.164;10.530;2024-03-25T00:03:55;8.10;40.80
10245;DHT22;5167;52.164;10.530;2024-03-25T00:06:20;8.10;40.00
10245;DHT22;5167;52.164;10.530;2024-03-25T00:08:46;8.00;39.60
10245;DHT22;5167;52.164;10.530;2024-03-25T00:11:12;8.30;39.30
10245;DHT22;5167;52.164;10.530;2024-03-25T00:13:38;8.10;38.90
10245;DHT22;5167;52.164;10.530;2024-03-25T00:16:03;8.00;37.50
10245;DHT22;5167;52.164;10.530;2024-03-25T00:18:30;8.00;38.30
10245;DHT22;5167;52.164;10.530;2024-03-25T00:20:56;8.00;37.50
10245;DHT22;5167;52.164;10.530;2024-03-25T00:23:22;7.90;37.10
10245;DHT22;5167;52.164;10.530;2024-03-25T00:25:47;7.90;36.80
10245;DHT22;5167;52.164;10.530;2024-03-25T00:28:13;7.90;36.50
10245;DHT22;5167;52.164;10.530;2024-03-25T00:30:38;7.90;35.80
10245;DHT22;5167;52.164;10.530;2024-03-25T00:33:04;7.90;36.00
10245;DHT22;5167;52.164;10.530;2024-03-25T00:35:32;7.80;35.60
10245;DHT22;5167;52.164;10.530;2024-03-25T00:37:58;7.80;35.80
10245;DHT22;5167;52.164;10.530;2024-03-25T00:40:24;7.80;35.60
10245;DHT22;5167;52.164;10.530;2024-03-25T00:42:49;7.70;35.60
10245;DHT22;5167;52.164;10.530;2024-03-25T00:45:15;7.70;35.60
10245;DHT22;5167;52.164;10.530;2024-03-25T00:47:41;7.70;35.80
10245;DHT22;5167;52.164;10.530;2024-03-25T00:50:07;7.70;36.20
10245;DHT22;5167;52.164;10.530;2024-03-25T00:52:33;7.60;37.70
10245;DHT22;5167;52.164;10.530;2024-03-25T00:54:58;7.70;36.40
10245;DHT22;5167;52.164;10.530;2024-03-25T00:57:24;7.60;36.10
10245;DHT22;5167;52.164;10.530;2024-03-25T00:59:50;7.70;36.90
10245;DHT22;5167;52.164;10.530;2024-03-25T01:02:15;7.60;37.00
10245;DHT22;5167;52.164;10.530;2024-03-25T01:04:41;7.70;37.30
10245;DHT22;5167;52.164;10.530;2024-03-25T01:07:06;7.70;37.50
10245;DHT22;5167;52.164;10.530;2024-03-25T01:09:31;7.70;37.90
10245;DHT22;5167;52.164;10.530;2024-03-25T01:11:57;7.60;37.70
10245;DHT22;5167;52.164;10.530;2024-03-25T01:14:23;7.70;38.00
10245;DHT22;5167;52.164;10.530;2024-03-25T01:16:48;7.70;37.80
10245;DHT22;5167;52.164;10.530;2024-03-25T01:19:13;7.70;38.00
10245;DHT22;5167;52.164;10.530;2024-03-25T01:21:39;7.70;38.20
10245;DHT22;5167;52.164;10.530;2024-03-25T01:24:04;7.70;37.70
10245;DHT22;5167;52.164;10.530;2024-03-25T01:26:30;7.70;37.50
10245;DHT22;5167;52.164;10.530;2024-03-25T01:28:55;7.70;37.50
10245;DHT22;5167;52.164;10.530;2024-03-25T01:31:21;7.70;37.30
10245;DHT22;5167;52.164;10.530;2024-03-25T01:33:46;7.70;37.00
10245;DHT22;5167;52.164;10.530;2024-03-25T01:36:12;7.70;37.70
10245;DHT22;5167;52.164;10.530;2024-03-25T01:38:43;7.60;36.70
10245;DHT22;5167;52.164;10.530;2024-03-25T01:41:13;7.70;37.40
10245;DHT22;5167;52.164;10.530;2024-03-25T01:43:40;7.60;36.80
10245;DHT22;5167;52.164;10.530;2024-03-25T01:46:06;7.60;37.20
10245;DHT22;5167;52.164;10.530;2024-03-25T01:48:32;7.60;37.20
10245;DHT22;5167;52.164;10.530;2024-03-25T01:50:58;7.60;36.80
10245;DHT22;5167;52.164;10.530;2024-03-25T01:53:24;7.60;36.20
10245;DHT22;5167;52.164;10.530;2024-03-25T01:55:52;7.60;36.00
10245;DHT22;5167;52.164;10.530;2024-03-25T01:58:20;7.50;36.80
10245;DHT22;5167;52.164;10.530;2024-03-25T02:00:46;7.60;37.10
10245;DHT22;5167;52.164;10.530;2024-03-25T02:03:12;7.60;37.30
10245;DHT22;5167;52.164;10.530;2024-03-25T02:05:38;7.50;37.50
10245;DHT22;5167;52.164;10.530;2024-03-25T02:08:03;7.60;37.00
10245;DHT22;5167;52.164;10.530;2024-03-25T02:10:29;7.60;36.90
10245;DHT22;5167;52.164;10.530;2024-03-25T02:12:55;7.60;37.00
10245;DHT22;5167;52.164;10.530;2024-03-25T02:15:21;7.60;37.00
10245;DHT22;5167;52.164;10.530;2024-03-25T02:17:46;7.60;37.30
10245;DHT22;5167;52.164;10.530;2024-03-25T02:20:12;7.50;37.00
10245;DHT22;5167;52.164;10.530;2024-03-25T02:22:41;7.60;37.80
10245;DHT22;5167;52.164;10.530;2024-03-25T02:25:09;7.60;38.00
10245;DHT22;5167;52.164;10.530;2024-03-25T02:27:36;7.60;38.00
10245;DHT22;5167;52.164;10.530;2024-03-25T02:30:06;7.60;38.50
10245;DHT22;5167;52.164;10.530;2024-03-25T02:32:33;7.60;37.90
10245;DHT22;5167;52.164;10.530;2024-03-25T02:34:58;7.50;38.70
10245;DHT22;5167;52.164;10.530;2024-03-25T02:37:25;7.60;38.40
10245;DHT22;5167;52.164;10.530;2024-03-25T02:39:51;7.50;38.20
10245;DHT22;5167;52.164;10.530;2024-03-25T02:42:17;7.50;39.60
10245;DHT22;5167;52.164;10.530;2024-03-25T02:44:43;7.50;39.10
10245;DHT22;5167;52.164;10.530;2024-03-25T02:47:09;7.50;38.60
10245;DHT22;5167;52.164;10.530;2024-03-25T02:49:35;7.50;38.40
10245;DHT22;5167;52.164;10.530;2024-03-25T02:52:01;7.50;38.50
10245;DHT22;5167;52.164;10.530;2024-03-25T02:54:26;7.50;39.20
10245;DHT22;5167;52.164;10.530;2024-03-25T02:56:52;7.50;38.50
10245;DHT22;5167;52.164;10.530;2024-03-25T02:59:17;7.60;38.70
10245;DHT22;5167;52.164;10.530;2024-03-25T03:01:43;7.50;38.00
10245;DHT22;5167;52.164;10.530;2024-03-25T03:04:08;7.70;38.00
10245;DHT22;5167;52.164;10.530;2024-03-25T03:06:34;7.50;37.90
10245;DHT22;5167;52.164;10.530;2024-03-25T03:08:59;7.50;37.70
10245;DHT22;5167;52.164;10.530;2024-03-25T03:11:25;7.50;37.80
10245;DHT22;5167;52.164;10.530;2024-03-25T03:13:50;7.60;37.50
10245;DHT22;5167;52.164;10.530;2024-03-25T03:16:16;7.60;37.50
10245;DHT22;5167;52.164;10.530;2024-03-25T03:18:41;7.60;37.50
10245;DHT22;5167;52.164;10.530;2024-03-25T03:21:07;7.60;37.70
10245;DHT22;5167;52.164;10.530;2024-03-25T03:23:32;7.70;38.00
10245;DHT22;5167;52.164;10.530;2024-03-25T03:25:58;7.60;37.90
10245;DHT22;5167;52.164;10.530;2024-03-25T03:28:25;7.70;37.80
10245;DHT22;5167;52.164;10.530;2024-03-25T03:30:50;7.60;36.80
10245;DHT22;5167;52.164;10.530;2024-03-25T03:33:16;7.70;37.80
10245;DHT22;5167;52.164;10.530;2024-03-25T03:35:42;7.70;37.30
10245;DHT22;5167;52.164;10.530;2024-03-25T03:38:08;7.70;37.00
10245;DHT22;5167;52.164;10.530;2024-03-25T03:40:33;7.70;37.10
10245;DHT22;5167;52.164;10.530;2024-03-25T03:42:59;7.70;36.90
10245;DHT22;5167;52.164;10.530;2024-03-25T03:45:25;7.70;36.90
10245;DHT22;5167;52.164;10.530;2024-03-25T03:47:51;7.60;36.50
10245;DHT22;5167;52.164;10.530;2024-03-25T03:50:16;7.60;36.80
10245;DHT22;5167;52.164;10.530;2024-03-25T03:52:42;7.70;37.20
10245;DHT22;5167;52.164;10.530;2024-03-25T03:55:08;7.70;36.90
10245;DHT22;5167;52.164;10.530;2024-03-25T03:57:33;7.60;36.20
10245;DHT22;5167;52.164;10.530;2024-03-25T03:59:59;7.70;35.50
10245;DHT22;5167;52.164;10.530;2024-03-25T04:02:26;7.60;35.60
10245;DHT22;5167;52.164;10.530;2024-03-25T04:04:51;7.60;35.30
10245;DHT22;5167;52.164;10.530;2024-03-25T04:07:17;7.60;35.10
10245;DHT22;5167;52.164;10.530;2024-03-25T04:09:43;7.60;35.30
10245;DHT22;5167;52.164;10.530;2024-03-25T04:12:08;7.60;35.60
10245;DHT22;5167;52.164;10.530;2024-03-25T04:14:34;7.70;35.70
10245;DHT22;5167;52.164;10.530;2024-03-25T04:16:59;7.60;35.40
10245;DHT22;5167;52.164;10.530;2024-03-25T04:19:26;7.60;35.40
10245;DHT22;5167;52.164;10.530;2024-03-25T04:21:53;7.60;35.30
10245;DHT22;5167;52.164;10.530;2024-03-25T04:24:18;7.60;35.60
10245;DHT22;5167;52.164;10.530;2024-03-25T04:26:45;7.60;35.30
10245;DHT22;5167;52.164;10.530;2024-03-25T04:29:10;7.70;35.50
10245;DHT22;5167;52.164;10.530;2024-03-25T04:31:36;7.70;35.40
10245;DHT22;5167;52.164;10.530;2024-03-25T04:34:03;7.60;35.70
10245;DHT22;5167;52.164;10.530;2024-03-25T04:36:28;7.50;36.20
10245;DHT22;5167;52.164;10.530;2024-03-25T04:38:54;7.50;36.50
10245;DHT22;5167;52.164;10.530;2024-03-25T04:41:19;7.50;36.80
10245;DHT22;5167;52.164;10.530;2024-03-25T04:43:46;7.60;37.00
10245;DHT22;5167;52.164;10.530;2024-03-25T04:46:11;7.60;36.80
10245;DHT22;5167;52.164;10.530;2024-03-25T04:48:36;7.60;36.30
10245;DHT22;5167;52.164;10.530;2024-03-25T04:51:02;7.50;36.50
10245;DHT22;5167;52.164;10.530;2024-03-25T04:53:28;7.50;36.40
10245;DHT22;5167;52.164;10.530;2024-03-25T04:55:54;7.60;36.90
10245;DHT22;5167;52.164;10.530;2024-03-25T04:58:19;7.60;37.00
10245;DHT22;5167;52.164;10.530;2024-03-25T05:00:45;7.60;36.90
10245;DHT22;5167;52.164;10.530;2024-03-25T05:03:11;7.60;37.00
10245;DHT22;5167;52.164;10.530;2024-03-25T05:05:36;7.60;36.80
10245;DHT22;5167;52.164;10.530;2024-03-25T05:08:02;7.60;36.80
10245;DHT22;5167;52.164;10.530;2024-03-25T05:10:28;7.60;36.80
10245;DHT22;5167;52.164;10.530;2024-03-25T05:12:54;7.70;36.60
10245;DHT22;5167;52.164;10.530;2024-03-25T05:15:21;7.60;36.60
10245;DHT22;5167;52.164;10.530;2024-03-25T05:17:46;7.60;36.10
10245;DHT22;5167;52.164;10.530;2024-03-25T05:20:11;7.50;35.80
10245;DHT22;5167;52.164;10.530;2024-03-25T05:22:37;7.50;36.20
10245;DHT22;5167;52.164;10.530;2024-03-25T05:25:03;7.60;36.00
10245;DHT22;5167;52.164;10.530;2024-03-25T05:27:28;7.50;36.50
10245;DHT22;5167;52.164;10.530;2024-03-25T05:29:54;7.50;37.00
10245;DHT22;5167;52.164;10.530;2024-03-25T05:32:19;7.50;36.20
10245;DHT22;5167;52.164;10.530;2024-03-25T05:34:47;7.60;36.40
10245;DHT22;5167;52.164;10.530;2024-03-25T05:37:13;7.50;36.20
10245;DHT22;5167;52.164;10.530;2024-03-25T05:39:39;7.50;36.50
10245;DHT22;5167;52.164;10.530;2024-03-25T05:42:04;7.50;36.40
10245;DHT22;5167;52.164;10.530;2024-03-25T05:44:30;7.60;36.80
10245;DHT22;5167;52.164;10.530;2024-03-25T05:46:55;7.50;36.60
10245;DHT22;5167;52.164;10.530;2024-03-25T05:49:21;7.50;36.80
10245;DHT22;5167;52.164;10.530;2024-03-25T05:51:46;7.60;36.50
10245;DHT22;5167;52.164;10.530;2024-03-25T05:54:13;7.60;36.30
10245;DHT22;5167;52.164;10.530;2024-03-25T05:56:38;7.70;35.80
10245;DHT22;5167;52.164;10.530;2024-03-25T05:59:04;7.60;36.60
10245;DHT22;5167;52.164;10.530;2024-03-25T06:01:29;7.60;36.40
10245;DHT22;5167;52.164;10.530;2024-03-25T06:03:55;7.80;36.30
10245;DHT22;5167;52.164;10.530;2024-03-25T06:06:20;7.70;36.40
10245;DHT22;5167;52.164;10.530;2024-03-25T06:08:46;7.70;36.90
10245;DHT22;5167;52.164;10.530;2024-03-25T06:11:11;7.70;36.60
10245;DHT22;5167;52.164;10.530;2024-03-25T06:13:37;7.90;36.60
10245;DHT22;5167;52.164;10.530;2024-03-25T06:16:03;7.80;36.40
10245;DHT22;5167;52.164;10.530;2024-03-25T06:18:28;7.80;36.40
10245;DHT22;5167;52.164;10.530;2024-03-25T06:20:54;7.90;36.60
10245;DHT22;5167;52.164;10.530;2024-03-25T06:23:28;7.90;36.50
10245;DHT22;5167;52.164;10.530;2024-03-25T06:25:55;7.90;36.70
10245;DHT22;5167;52.164;10.530;2024-03-25T06:28:21;7.90;36.40
10245;DHT22;5167;52.164;10.530;2024-03-25T06:30:47;8.00;36.40
10245;DHT22;5167;52.164;10.530;2024-03-25T06:33:31;8.00;36.70
10245;DHT22;5167;52.164;10.530;2024-03-25T06:36:16;7.90;36.80
10245;DHT22;5167;52.164;10.530;2024-03-25T06:38:42;8.00;36.40
10245;DHT22;5167;52.164;10.530;2024-03-25T06:41:08;8.00;36.90
10245;DHT22;5167;52.164;10.530;2024-03-25T06:43:34;8.00;36.20
10245;DHT22;5167;52.164;10.530;2024-03-25T06:45:59;8.00;36.50
10245;DHT22;5167;52.164;10.530;2024-03-25T06:48:25;8.00;36.30
10245;DHT22;5167;52.164;10.530;2024-03-25T06:50:57;8.00;36.70
10245;DHT22;5167;52.164;10.530;2024-03-25T06:53:23;8.10;36.70
10245;DHT22;5167;52.164;10.530;2024-03-25T06:55:57;8.10;36.60
10245;DHT22;5167;52.164;10.530;2024-03-25T06:58:24;8.20;36.80
10245;DHT22;5167;52.164;10.530;2024-03-25T07:00:50;8.10;36.40
10245;DHT22;5167;52.164;10.530;2024-03-25T07:03:17;8.20;36.40
10245;DHT22;5167;52.164;10.530;2024-03-25T07:05:46;8.20;36.40
10245;DHT22;5167;52.164;10.530;2024-03-25T07:08:12;8.20;36.20
10245;DHT22;5167;52.164;10.530;2024-03-25T07:10:38;8.20;36.60
10245;DHT22;5167;52.164;10.530;2024-03-25T07:13:03;8.30;35.90
10245;DHT22;5167;52.164;10.530;2024-03-25T07:15:31;8.20;35.90
10245;DHT22;5167;52.164;10.530;2024-03-25T07:17:56;8.30;35.70
10245;DHT22;5167;52.164;10.530;2024-03-25T07:20:23;8.30;35.40
10245;DHT22;5167;52.164;10.530;2024-03-25T07:22:48;8.40;35.50
10245;DHT22;5167;52.164;10.530;2024-03-25T07:25:14;8.30;35.60
10245;DHT22;5167;52.164;10.530;2024-03-25T07:27:40;8.40;35.10
10245;DHT22;5167;52.164;10.530;2024-03-25T07:30:06;8.40;35.40
10245;DHT22;5167;52.164;10.530;2024-03-25T07:32:33;8.50;35.60
10245;DHT22;5167;52.164;10.530;2024-03-25T07:34:59;8.50;34.90
10245;DHT22;5167;52.164;10.530;2024-03-25T07:37:24;8.50;34.30
10245;DHT22;5167;52.164;10.530;2024-03-25T07:39:49;8.50;34.10
10245;DHT22;5167;52.164;10.530;2024-03-25T07:42:15;8.50;33.30
10245;DHT22;5167;52.164;10.530;2024-03-25T07:44:40;8.60;33.70
10245;DHT22;5167;52.164;10.530;2024-03-25T07:47:06;8.50;33.60
10245;DHT22;5167;52.164;10.530;2024-03-25T07:49:32;8.60;34.00
10245;DHT22;5167;52.164;10.530;2024-03-25T07:51:59;8.80;33.50
10245;DHT22;5167;52.164;10.530;2024-03-25T07:54:25;8.90;33.20
10245;DHT22;5167;52.164;10.530;2024-03-25T07:56:52;9.00;31.50
10245;DHT22;5167;52.164;10.530;2024-03-25T07:59:18;9.10;31.00
10245;DHT22;5167;52.164;10.530;2024-03-25T08:01:44;9.10;30.80
10245;DHT22;5167;52.164;10.530;2024-03-25T08:04:09;9.20;30.60
10245;DHT22;5167;52.164;10.530;2024-03-25T08:06:35;9.20;29.30
10245;DHT22;5167;52.164;10.530;2024-03-25T08:09:00;9.30;29.80
10245;DHT22;5167;52.164;10.530;2024-03-25T08:11:26;9.30;30.20
10245;DHT22;5167;52.164;10.530;2024-03-25T08:13:52;9.50;29.40
10245;DHT22;5167;52.164;10.530;2024-03-25T08:16:17;9.60;28.10
10245;DHT22;5167;52.164;10.530;2024-03-25T08:18:45;9.70;26.80
10245;DHT22;5167;52.164;10.530;2024-03-25T08:21:10;9.70;26.70
10245;DHT22;5167;52.164;10.530;2024-03-25T08:23:36;9.80;25.60
10245;DHT22;5167;52.164;10.530;2024-03-25T08:26:01;10.00;24.60
10245;DHT22;5167;52.164;10.530;2024-03-25T08:28:27;10.00;24.70
10245;DHT22;5167;52.164;10.530;2024-03-25T08:30:53;10.00;24.20
10245;DHT22;5167;52.164;10.530;2024-03-25T08:33:18;10.10;24.90
10245;DHT22;5167;52.164;10.530;2024-03-25T08:35:44;10.20;25.40
10245;DHT22;5167;52.164;10.530;2024-03-25T08:38:09;10.20;24.30
10245;DHT22;5167;52.164;10.530;2024-03-25T08:40:35;10.20;23.60
10245;DHT22;5167;52.164;10.530;2024-03-25T08:43:00;10.20;23.90
10245;DHT22;5167;52.164;10.530;2024-03-25T08:45:26;10.20;24.00
10245;DHT22;5167;52.164;10.530;2024-03-25T08:47:53;10.20;23.90
10245;DHT22;5167;52.164;10.530;2024-03-25T08:50:19;10.10;23.40
10245;DHT22;5167;52.164;10.530;2024-03-25T08:52:44;10.00;24.30
10245;DHT22;5167;52.164;10.530;2024-03-25T08:55:09;9.90;24.80
10245;DHT22;5167;52.164;10.530;2024-03-25T08:57:35;9.90;25.20
10245;DHT22;5167;52.164;10.530;2024-03-25T09:00:00;9.80;26.00
10245;DHT22;5167;52.164;10.530;2024-03-25T09:02:26;9.90;27.50
10245;DHT22;5167;52.164;10.530;2024-03-25T09:04:51;9.90;27.60
10245;DHT22;5167;52.164;10.530;2024-03-25T09:07:18;9.90;27.90
10245;DHT22;5167;52.164;10.530;2024-03-25T09:09:43;9.90;27.90
10245;DHT22;5167;52.164;10.530;2024-03-25T09:12:27;10.00;27.80
10245;DHT22;5167;52.164;10.530;2024-03-25T09:14:53;10.10;27.00
10245;DHT22;5167;52.164;10.530;2024-03-25T09:17:18;10.20;26.70
10245;DHT22;5167;52.164;10.530;2024-03-25T09:19:44;10.20;25.30
10245;DHT22;5167;52.164;10.530;2024-03-25T09:22:09;10.30;24.50
10245;DHT22;5167;52.164;10.530;2024-03-25T09:24:35;10.50;25.00
10245;DHT22;5167;52.164;10.530;2024-03-25T09:27:00;10.40;24.00
10245;DHT22;5167;52.164;10.530;2024-03-25T09:29:26;10.50;23.10
10245;DHT22;5167;52.164;10.530;2024-03-25T09:31:51;10.50;21.60
10245;DHT22;5167;52.164;10.530;2024-03-25T09:34:17;10.60;20.70
10245;DHT22;5167;52.164;10.530;2024-03-25T09:36:45;10.60;20.50
10245;DHT22;5167;52.164;10.530;2024-03-25T09:39:11;10.70;18.10
10245;DHT22;5167;52.164;10.530;2024-03-25T09:41:45;10.80;18.50
10245;DHT22;5167;52.164;10.530;2024-03-25T09:44:11;10.80;16.80
10245;DHT22;5167;52.164;10.530;2024-03-25T09:46:37;10.80;14.60
10245;DHT22;5167;52.164;10.530;2024-03-25T09:49:02;10.90;14.30
10245;DHT22;5167;52.164;10.530;2024-03-25T09:51:31;10.90;13.80
10245;DHT22;5167;52.164;10.530;2024-03-25T09:53:56;11.00;13.20
10245;DHT22;5167;52.164;10.530;2024-03-25T09:56:22;11.10;13.70
10245;DHT22;5167;52.164;10.530;2024-03-25T09:58:48;11.00;11.60
10245;DHT22;5167;52.164;10.530;2024-03-25T10:01:14;11.10;10.30
10245;DHT22;5167;52.164;10.530;2024-03-25T10:03:40;11.20;9.40
10245;DHT22;5167;52.164;10.530;2024-03-25T10:06:05;11.20;7.90
10245;DHT22;5167;52.164;10.530;2024-03-25T10:08:33;11.20;7.80
10245;DHT22;5167;52.164;10.530;2024-03-25T10:11:00;11.20;7.30
10245;DHT22;5167;52.164;10.530;2024-03-25T10:13:27;11.20;7.30
10245;DHT22;5167;52.164;10.530;2024-03-25T10:15:54;11.20;8.00
10245;DHT22;5167;52.164;10.530;2024-03-25T10:18:20;11.20;8.00
10245;DHT22;5167;52.164;10.530;2024-03-25T10:20:52;11.20;7.70
10245;DHT22;5167;52.164;10.530;2024-03-25T10:23:24;11.30;7.50
10245;DHT22;5167;52.164;10.530;2024-03-25T10:25:53;11.30;7.50
10245;DHT22;5167;52.164;10.530;2024-03-25T10:28:19;11.40;7.50
10245;DHT22;5167;52.164;10.530;2024-03-25T10:30:44;11.40;7.70
10245;DHT22;5167;52.164;10.530;2024-03-25T10:33:10;11.30;6.20
10245;DHT22;5167;52.164;10.530;2024-03-25T10:35:36;11.30;5.70
10245;DHT22;5167;52.164;10.530;2024-03-25T10:38:09;11.30;6.00
10245;DHT22;5167;52.164;10.530;2024-03-25T10:40:39;11.30;8.00
10245;DHT22;5167;52.164;10.530;2024-03-25T10:43:10;11.40;8.40
10245;DHT22;5167;52.164;10.530;2024-03-25T10:45:45;11.60;8.90
10245;DHT22;5167;52.164;10.530;2024-03-25T10:48:35;11.70;7.20
10245;DHT22;5167;52.164;10.530;2024-03-25T10:51:03;11.80;5.20
10245;DHT22;5167;52.164;10.530;2024-03-25T10:53:32;11.80;5.00
10245;DHT22;5167;52.164;10.530;2024-03-25T10:56:00;11.80;5.00
10245;DHT22;5167;52.164;10.530;2024-03-25T10:58:27;11.80;5.00
10245;DHT22;5167;52.164;10.530;2024-03-25T11:00:53;11.70;5.00
10245;DHT22;5167;52.164;10.530;2024-03-25T11:03:22;11.70;5.00
10245;DHT22;5167;52.164;10.530;2024-03-25T11:05:48;11.70;5.00
10245;DHT22;5167;52.164;10.530;2024-03-25T11:08:16;11.50;5.00
10245;DHT22;5167;52.164;10.530;2024-03-25T11:10:43;11.60;5.00
10245;DHT22;5167;52.164;10.530;2024-03-25T11:13:18;11.50;5.00
10245;DHT22;5167;52.164;10.530;2024-03-25T11:15:45;11.70;5.00
10245;DHT22;5167;52.164;10.530;2024-03-25T11:18:20;11.80;5.00
10245;DHT22;5167;52.164;10.530;2024-03-25T11:20:59;11.80;5.00
10245;DHT22;5167;52.164;10.530;2024-03-25T11:23:25;11.90;5.00
10245;DHT22;5167;52.164;10.530;2024-03-25T11:25:55;11.90;5.00
10245;DHT22;5167;52.164;10.530;2024-03-25T11:28:27;12.00;5.00
10245;DHT22;5167;52.164;10.530;2024-03-25T11:30:53;12.00;5.00
10245;DHT22;5167;52.164;10.530;2024-03-25T11:33:18;11.90;5.00
10245;DHT22;5167;52.164;10.530;2024-03-25T11:35:48;12.00;5.00
10245;DHT22;5167;52.164;10.530;2024-03-25T11:38:14;11.90;5.00
10245;DHT22;5167;52.164;10.530;2024-03-25T11:40:42;11.80;5.00
10245;DHT22;5167;52.164;10.530;2024-03-25T11:43:08;11.80;5.00
10245;DHT22;5167;52.164;10.530;2024-03-25T11:45:34;11.70;5.00
10245;DHT22;5167;52.164;10.530;2024-03-25T11:47:59;11.70;5.00
10245;DHT22;5167;52.164;10.530;2024-03-25T11:50:34;11.70;5.00
10245;DHT22;5167;52.164;10.530;2024-03-25T11:53:03;11.70;5.00
10245;DHT22;5167;52.164;10.530;2024-03-25T11:55:28;11.60;5.00
10245;DHT22;5167;52.164;10.530;2024-03-25T11:57:57;11.70;5.00
10245;DHT22;5167;52.164;10.530;2024-03-25T12:00:23;11.70;5.00
10245;DHT22;5167;52.164;10.530;2024-03-25T12:02:48;11.70;5.00
10245;DHT22;5167;52.164;10.530;2024-03-25T12:05:14;11.70;5.00
10245;DHT22;5167;52.164;10.530;2024-03-25T12:07:40;11.80;5.00
10245;DHT22;5167;52.164;10.530;2024-03-25T12:10:05;11.80;5.00
10245;DHT22;5167;52.164;10.530;2024-03-25T12:12:50;11.90;5.00
10245;DHT22;5167;52.164;10.530;2024-03-25T12:15:18;12.00;5.00
10245;DHT22;5167;52.164;10.530;2024-03-25T12:17:44;12.00;5.00
10245;DHT22;5167;52.164;10.530;2024-03-25T12:20:09;12.00;5.00
10245;DHT22;5167;52.164;10.530;2024-03-25T12:22:38;12.00;5.00
10245;DHT22;5167;52.164;10.530;2024-03-25T12:25:05;12.20;5.00
10245;DHT22;5167;52.164;10.530;2024-03-25T12:27:32;12.00;5.00
10245;DHT22;5167;52.164;10.530;2024-03-25T12:30:08;12.00;5.00
10245;DHT22;5167;52.164;10.530;2024-03-25T12:32:40;11.90;5.00
10245;DHT22;5167;52.164;10.530;2024-03-25T12:37:32;11.80;5.00
10245;DHT22;5167;52.164;10.530;2024-03-25T12:39:58;11.80;5.00
10245;DHT22;5167;52.164;10.530;2024-03-25T12:42:25;11.80;5.00
10245;DHT22;5167;52.164;10.530;2024-03-25T12:44:52;11.90;5.00
10245;DHT22;5167;52.164;10.530;2024-03-25T12:47:18;12.00;5.00
10245;DHT22;5167;52.164;10.530;2024-03-25T12:49:43;12.00;5.00
10245;DHT22;5167;52.164;10.530;2024-03-25T12:52:09;12.00;5.00
10245;DHT22;5167;52.164;10.530;2024-03-25T12:54:35;12.10;5.00
10245;DHT22;5167;52.164;10.530;2024-03-25T12:57:01;12.10;5.00
10245;DHT22;5167;52.164;10.530;2024-03-25T12:59:26;12.10;5.00
10245;DHT22;5167;52.164;10.530;2024-03-25T13:01:53;12.20;5.00
10245;DHT22;5167;52.164;10.530;2024-03-25T13:04:19;12.20;5.00
10245;DHT22;5167;52.164;10.530;2024-03-25T13:06:44;12.20;5.00
10245;DHT22;5167;52.164;10.530;2024-03-25T13:09:10;12.20;5.00
10245;DHT22;5167;52.164;10.530;2024-03-25T13:11:36;12.30;5.00
10245;DHT22;5167;52.164;10.530;2024-03-25T13:14:03;12.30;5.00
10245;DHT22;5167;52.164;10.530;2024-03-25T13:16:28;12.30;5.00
10245;DHT22;5167;52.164;10.530;2024-03-25T13:18:54;12.40;5.00
10245;DHT22;5167;52.164;10.530;2024-03-25T13:21:20;12.40;5.00
10245;DHT22;5167;52.164;10.530;2024-03-25T13:23:45;12.40;5.00
10245;DHT22;5167;52.164;10.530;2024-03-25T13:26:11;12.40;5.00
10245;DHT22;5167;52.164;10.530;2024-03-25T13:28:36;12.40;5.00
10245;DHT22;5167;52.164;10.530;2024-03-25T13:31:02;12.40;5.00
10245;DHT22;5167;52.164;10.530;2024-03-25T13:33:27;12.40;5.00
10245;DHT22;5167;52.164;10.530;2024-03-25T13:35:53;12.40;5.00
10245;DHT22;5167;52.164;10.530;2024-03-25T13:38:18;12.40;5.00
10245;DHT22;5167;52.164;10.530;2024-03-25T13:40:44;12.30;5.00
10245;DHT22;5167;52.164;10.530;2024-03-25T13:43:09;12.30;5.00
10245;DHT22;5167;52.164;10.530;2024-03-25T13:45:35;12.40;5.00
10245;DHT22;5167;52.164;10.530;2024-03-25T13:48:01;12.20;5.00
10245;DHT22;5167;52.164;10.530;2024-03-25T13:50:26;12.20;5.00
10245;DHT22;5167;52.164;10.530;2024-03-25T13:52:52;12.30;5.00
10245;DHT22;5167;52.164;10.530;2024-03-25T13:55:17;12.30;5.00
10245;DHT22;5167;52.164;10.530;2024-03-25T13:57:44;12.30;5.00
10245;DHT22;5167;52.164;10.530;2024-03-25T14:00:10;12.30;5.00
10245;DHT22;5167;52.164;10.530;2024-03-25T14:02:36;12.30;5.00
10245;DHT22;5167;52.164;10.530;2024-03-25T14:05:04;12.30;5.00
10245;DHT22;5167;52.164;10.530;2024-03-25T14:07:30;12.20;5.00
10245;DHT22;5167;52.164;10.530;2024-03-25T14:09:55;12.20;5.00
10245;DHT22;5167;52.164;10.530;2024-03-25T14:12:21;12.10;5.00
10245;DHT22;5167;52.164;10.530;2024-03-25T14:14:49;12.20;5.00
10245;DHT22;5167;52.164;10.530;2024-03-25T14:17:14;12.10;5.00
10245;DHT22;5167;52.164;10.530;2024-03-25T14:19:39;12.10;5.00
10245;DHT22;5167;52.164;10.530;2024-03-25T14:22:05;12.20;5.00
10245;DHT22;5167;52.164;10.530;2024-03-25T14:24:30;12.20;5.00
10245;DHT22;5167;52.164;10.530;2024-03-25T14:26:56;12.20;5.00
10245;DHT22;5167;52.164;10.530;2024-03-25T14:29:21;12.10;5.00
10245;DHT22;5167;52.164;10.530;2024-03-25T14:31:47;12.20;5.00
10245;DHT22;5167;52.164;10.530;2024-03-25T14:34:12;12.20;5.00
10245;DHT22;5167;52.164;10.530;2024-03-25T14:36:38;12.10;5.00
10245;DHT22;5167;52.164;10.530;2024-03-25T14:39:03;12.10;5.00
10245;DHT22;5167;52.164;10.530;2024-03-25T14:41:38;12.20;5.00
10245;DHT22;5167;52.164;10.530;2024-03-25T14:44:04;12.10;5.00
10245;DHT22;5167;52.164;10.530;2024-03-25T14:46:29;12.20;5.00
10245;DHT22;5167;52.164;10.530;2024-03-25T14:48:55;12.20;5.00
10245;DHT22;5167;52.164;10.530;2024-03-25T14:51:20;12.20;5.00
10245;DHT22;5167;52.164;10.530;2024-03-25T14:53:46;12.20;5.00
10245;DHT22;5167;52.164;10.530;2024-03-25T14:56:11;12.10;5.00
10245;DHT22;5167;52.164;10.530;2024-03-25T14:58:36;12.10;5.00
10245;DHT22;5167;52.164;10.530;2024-03-25T15:01:02;12.10;5.00
10245;DHT22;5167;52.164;10.530;2024-03-25T15:03:28;12.10;5.00
10245;DHT22;5167;52.164;10.530;2024-03-25T15:05:53;12.00;5.00
10245;DHT22;5167;52.164;10.530;2024-03-25T15:08:18;12.00;5.00
10245;DHT22;5167;52.164;10.530;2024-03-25T15:10:47;12.00;5.00
10245;DHT22;5167;52.164;10.530;2024-03-25T15:13:13;12.00;5.00
10245;DHT22;5167;52.164;10.530;2024-03-25T15:15:39;11.90;5.00
10245;DHT22;5167;52.164;10.530;2024-03-25T15:18:07;12.00;5.00
10245;DHT22;5167;52.164;10.530;2024-03-25T15:20:33;11.90;5.00
10245;DHT22;5167;52.164;10.530;2024-03-25T15:22:59;11.90;5.00
10245;DHT22;5167;52.164;10.530;2024-03-25T15:25:24;11.90;5.00
10245;DHT22;5167;52.164;10.530;2024-03-25T15:27:50;11.90;5.00
10245;DHT22;5167;52.164;10.530;2024-03-25T15:30:15;12.10;5.00
10245;DHT22;5167;52.164;10.530;2024-03-25T15:32:41;11.90;5.00
10245;DHT22;5167;52.164;10.530;2024-03-25T15:35:07;11.80;5.00
10245;DHT22;5167;52.164;10.530;2024-03-25T15:37:33;11.80;5.00
10245;DHT22;5167;52.164;10.530;2024-03-25T15:39:59;11.80;5.00
10245;DHT22;5167;52.164;10.530;2024-03-25T15:42:24;11.90;5.00